createdAt,value
2023-02-12T00:03:59.193Z,56.72
2023-02-12T00:14:01.911Z,56.44
2023-02-12T00:24:09.139Z,55.54
2023-02-12T00:34:12.594Z,56.19
2023-02-12T00:44:16.617Z,56.10
2023-02-12T00:54:19.956Z,57.97
2023-02-12T01:04:23.564Z,56.88
2023-02-12T01:14:25.952Z,56.24
2023-02-12T01:24:28.415Z,57.24
2023-02-12T01:34:30.605Z,56.75
2023-02-12T01:44:37.070Z,56.47
2023-02-12T01:54:39.492Z,55.70
2023-02-12T02:04:49.072Z,56.07
2023-02-12T02:14:53.725Z,56.69
2023-02-12T02:25:32.220Z,57.14
2023-02-12T02:35:53.648Z,55.78
2023-02-12T02:46:00.815Z,56.13
2023-02-12T02:56:06.535Z,57.54
2023-02-12T03:06:12.634Z,57.25
2023-02-12T03:16:21.484Z,56.98
2023-02-12T03:26:27.216Z,55.88
2023-02-12T03:36:32.358Z,57.32
2023-02-12T03:46:42.071Z,57.08
2023-02-12T03:56:52.228Z,57.93
2023-02-12T04:06:54.682Z,58.00
2023-02-12T04:17:13.078Z,56.42
2023-02-12T04:27:26.365Z,56.20
2023-02-12T04:37:46.683Z,55.80
2023-02-12T04:47:49.014Z,56.00
2023-02-12T04:57:51.088Z,54.61
2023-02-12T05:07:53.233Z,56.53
2023-02-12T05:17:56.396Z,55.49
2023-02-12T05:27:58.852Z,55.27
2023-02-12T05:38:02.120Z,55.98
2023-02-12T05:48:04.489Z,55.21
2023-02-12T05:58:08.683Z,56.79
2023-02-12T06:08:11.131Z,57.33
2023-02-12T06:18:13.346Z,55.68
2023-02-12T06:28:15.892Z,55.78
2023-02-12T06:38:18.320Z,56.52
2023-02-12T06:48:20.493Z,58.68
2023-02-12T06:58:22.690Z,55.23
2023-02-12T07:08:25.109Z,54.88
2023-02-12T07:18:27.520Z,55.71
2023-02-12T07:28:33.576Z,55.26
2023-02-12T07:38:39.811Z,55.43
2023-02-12T07:48:42.280Z,55.36
2023-02-12T07:58:46.572Z,54.81
2023-02-12T08:08:51.232Z,53.74
2023-02-12T08:18:54.299Z,54.35
2023-02-12T08:29:09.406Z,54.74
2023-02-12T08:39:13.062Z,54.23
2023-02-12T08:49:20.247Z,55.16
2023-02-12T08:59:22.377Z,53.90
2023-02-12T09:09:26.607Z,52.48
2023-02-12T09:19:29.814Z,50.91
2023-02-12T09:29:32.336Z,51.50
2023-02-12T09:39:34.567Z,55.19
2023-02-12T09:49:59.412Z,50.75
2023-02-12T10:00:08.449Z,49.57
2023-02-12T10:10:39.857Z,51.25
2023-02-12T10:20:52.425Z,50.61
2023-02-12T10:31:10.352Z,49.21
2023-02-12T10:41:15.059Z,49.69
2023-02-12T10:51:48.810Z,48.85
2023-02-12T11:01:58.072Z,49.06
2023-02-12T11:12:00.389Z,50.22
2023-02-12T11:22:19.056Z,48.37
2023-02-12T11:32:22.929Z,48.65
2023-02-12T11:42:29.915Z,47.34
2023-02-12T11:52:38.610Z,46.64
2023-02-12T12:03:41.760Z,47.31
2023-02-12T12:14:05.373Z,47.73
2023-02-12T12:24:32.755Z,46.85
2023-02-12T12:34:38.244Z,47.72
2023-02-12T12:45:18.126Z,47.43
2023-02-12T12:55:39.346Z,46.36
2023-02-12T13:06:02.987Z,46.65
2023-02-12T13:16:16.188Z,47.27
2023-02-12T13:26:43.924Z,47.72
2023-02-12T13:37:20.865Z,47.31
2023-02-12T13:47:53.966Z,46.42
2023-02-12T13:58:30.648Z,46.24
2023-02-12T14:09:07.949Z,47.14
2023-02-12T14:19:41.165Z,46.70
2023-02-12T14:30:02.705Z,47.43
2023-02-12T14:40:35.534Z,48.11
2023-02-12T14:50:53.392Z,46.05
2023-02-12T15:00:57.546Z,46.40
2023-02-12T15:11:57.268Z,48.21
2023-02-12T15:22:01.222Z,47.02
2023-02-12T15:32:07.057Z,46.85
2023-02-12T15:42:34.940Z,46.33
2023-02-12T15:52:42.522Z,46.79
2023-02-12T16:02:53.664Z,46.54
2023-02-12T16:12:57.261Z,46.25
2023-02-12T16:23:08.111Z,46.48
2023-02-12T16:33:31.529Z,47.05
2023-02-12T16:43:34.051Z,46.69
2023-02-12T16:53:45.641Z,47.90
2023-02-12T17:03:50.621Z,47.40
2023-02-12T17:13:54.953Z,48.37
2023-02-12T17:23:57.306Z,49.36
2023-02-12T17:33:59.582Z,48.72
2023-02-12T17:44:02.242Z,48.51
2023-02-12T17:54:05.248Z,49.83
2023-02-12T18:04:07.764Z,48.44
2023-02-12T18:14:11.121Z,48.37
2023-02-12T18:24:14.254Z,48.20
2023-02-12T18:34:16.789Z,48.46
2023-02-12T18:44:19.261Z,48.03
2023-02-12T18:54:21.741Z,48.84
2023-02-12T19:04:26.426Z,47.84
2023-02-12T19:14:29.851Z,48.22
2023-02-12T19:24:45.909Z,47.96
2023-02-12T19:34:49.186Z,48.32
2023-02-12T19:44:51.409Z,48.81
2023-02-12T19:54:53.931Z,50.30
2023-02-12T20:04:56.141Z,50.20
2023-02-12T20:15:02.792Z,50.10
2023-02-12T20:25:06.759Z,50.03
2023-02-12T20:35:08.926Z,50.57
2023-02-12T20:45:11.340Z,49.68
2023-02-12T20:55:13.511Z,50.82
2023-02-12T21:05:16.043Z,50.87
2023-02-12T21:15:18.170Z,50.93
2023-02-12T21:25:20.324Z,51.04
2023-02-12T21:35:22.709Z,50.79
2023-02-12T21:45:25.046Z,50.58
2023-02-12T21:55:27.527Z,50.89
2023-02-12T22:05:32.624Z,50.42
2023-02-12T22:15:34.707Z,51.89
2023-02-12T22:25:36.810Z,50.97
2023-02-12T22:35:40.238Z,51.44
2023-02-12T22:45:44.413Z,51.21
2023-02-12T22:55:46.647Z,51.13
2023-02-12T23:05:48.767Z,51.88
2023-02-12T23:15:50.900Z,51.01
2023-02-12T23:25:54.691Z,51.61
2023-02-12T23:35:57.088Z,51.51
2023-02-12T23:45:59.803Z,51.44
2023-02-12T23:56:02.124Z,51.80
